sensor_id;sensor_type;location;lat;lon;timestamp;P1;durP1;ratioP1;P2;durP2;ratioP2
70487;SDS011;57976;48.174;16.370;2023-07-13T00:01:37;5.40;;;1.30;;
70487;SDS011;57976;48.174;16.370;2023-07-13T00:03:42;3.60;;;1.20;;
70487;SDS011;57976;48.174;16.370;2023-07-13T00:05:52;4.70;;;1.30;;
70487;SDS011;57976;48.174;16.370;2023-07-13T00:08:02;4.30;;;1.50;;
70487;SDS011;57976;48.174;16.370;2023-07-13T00:10:08;4.90;;;1.50;;
70487;SDS011;57976;48.174;16.370;2023-07-13T00:12:25;4.30;;;1.40;;
70487;SDS011;57976;48.174;16.370;2023-07-13T00:14:33;4.90;;;1.50;;
70487;SDS011;57976;48.174;16.370;2023-07-13T00:16:38;4.90;;;1.70;;
70487;SDS011;57976;48.174;16.370;2023-07-13T00:18:44;5.60;;;1.80;;
70487;SDS011;57976;48.174;16.370;2023-07-13T00:20:54;5.20;;;1.80;;
70487;SDS011;57976;48.174;16.370;2023-07-13T00:22:59;4.60;;;1.70;;
70487;SDS011;57976;48.174;16.370;2023-07-13T00:25:07;7.20;;;2.10;;
70487;SDS011;57976;48.174;16.370;2023-07-13T00:27:14;7.00;;;1.90;;
70487;SDS011;57976;48.174;16.370;2023-07-13T00:29:19;5.20;;;1.90;;
70487;SDS011;57976;48.174;16.370;2023-07-13T00:31:24;5.20;;;2.00;;
70487;SDS011;57976;48.174;16.370;2023-07-13T00:33:33;6.20;;;1.80;;
70487;SDS011;57976;48.174;16.370;2023-07-13T00:35:38;5.70;;;1.90;;
70487;SDS011;57976;48.174;16.370;2023-07-13T00:37:45;5.10;;;1.90;;
70487;SDS011;57976;48.174;16.370;2023-07-13T00:39:50;5.70;;;1.70;;
70487;SDS011;57976;48.174;16.370;2023-07-13T00:41:56;3.90;;;1.50;;
70487;SDS011;57976;48.174;16.370;2023-07-13T00:44:04;3.70;;;1.20;;
70487;SDS011;57976;48.174;16.370;2023-07-13T00:46:15;3.30;;;1.00;;
70487;SDS011;57976;48.174;16.370;2023-07-13T00:48:25;3.90;;;1.10;;
70487;SDS011;57976;48.174;16.370;2023-07-13T00:50:34;3.50;;;1.20;;
70487;SDS011;57976;48.174;16.370;2023-07-13T00:52:40;4.40;;;1.20;;
70487;SDS011;57976;48.174;16.370;2023-07-13T00:54:48;4.20;;;1.00;;
70487;SDS011;57976;48.174;16.370;2023-07-13T00:56:55;3.80;;;1.20;;
70487;SDS011;57976;48.174;16.370;2023-07-13T00:59:05;3.80;;;1.20;;
70487;SDS011;57976;48.174;16.370;2023-07-13T01:04:31;3.80;;;1.20;;
70487;SDS011;57976;48.174;16.370;2023-07-13T01:06:36;3.80;;;1.20;;
70487;SDS011;57976;48.174;16.370;2023-07-13T01:08:42;3.70;;;1.10;;
70487;SDS011;57976;48.174;16.370;2023-07-13T01:10:54;3.40;;;0.90;;
70487;SDS011;57976;48.174;16.370;2023-07-13T01:13:00;3.90;;;1.00;;
70487;SDS011;57976;48.174;16.370;2023-07-13T01:15:32;3.10;;;1.00;;
70487;SDS011;57976;48.174;16.370;2023-07-13T01:17:39;4.10;;;1.20;;
70487;SDS011;57976;48.174;16.370;2023-07-13T01:19:45;3.80;;;1.10;;
70487;SDS011;57976;48.174;16.370;2023-07-13T01:21:51;4.50;;;1.10;;
70487;SDS011;57976;48.174;16.370;2023-07-13T01:23:56;3.20;;;1.10;;
70487;SDS011;57976;48.174;16.370;2023-07-13T01:26:02;3.50;;;1.20;;
70487;SDS011;57976;48.174;16.370;2023-07-13T01:28:08;4.80;;;1.30;;
70487;SDS011;57976;48.174;16.370;2023-07-13T01:30:15;4.20;;;1.10;;
70487;SDS011;57976;48.174;16.370;2023-07-13T01:32:20;3.40;;;1.20;;
70487;SDS011;57976;48.174;16.370;2023-07-13T01:34:30;3.80;;;1.00;;
70487;SDS011;57976;48.174;16.370;2023-07-13T01:36:35;3.60;;;1.10;;
70487;SDS011;57976;48.174;16.370;2023-07-13T01:38:41;3.90;;;1.10;;
70487;SDS011;57976;48.174;16.370;2023-07-13T01:40:47;3.80;;;1.10;;
70487;SDS011;57976;48.174;16.370;2023-07-13T01:42:51;4.20;;;1.00;;
70487;SDS011;57976;48.174;16.370;2023-07-13T01:44:56;3.80;;;1.10;;
70487;SDS011;57976;48.174;16.370;2023-07-13T01:47:02;3.40;;;1.10;;
70487;SDS011;57976;48.174;16.370;2023-07-13T01:49:08;3.10;;;1.20;;
70487;SDS011;57976;48.174;16.370;2023-07-13T01:51:13;3.00;;;1.00;;
70487;SDS011;57976;48.174;16.370;2023-07-13T01:53:19;2.90;;;1.10;;
70487;SDS011;57976;48.174;16.370;2023-07-13T01:55:24;2.70;;;1.00;;
70487;SDS011;57976;48.174;16.370;2023-07-13T01:57:29;3.10;;;1.00;;
70487;SDS011;57976;48.174;16.370;2023-07-13T01:59:33;3.40;;;1.10;;
70487;SDS011;57976;48.174;16.370;2023-07-13T02:01:38;4.40;;;1.30;;
70487;SDS011;57976;48.174;16.370;2023-07-13T02:03:43;3.50;;;1.20;;
70487;SDS011;57976;48.174;16.370;2023-07-13T02:05:48;4.50;;;1.20;;
70487;SDS011;57976;48.174;16.370;2023-07-13T02:07:53;3.60;;;1.10;;
70487;SDS011;57976;48.174;16.370;2023-07-13T02:09:58;2.80;;;1.00;;
70487;SDS011;57976;48.174;16.370;2023-07-13T02:12:03;4.00;;;1.30;;
70487;SDS011;57976;48.174;16.370;2023-07-13T02:14:09;4.10;;;1.30;;
70487;SDS011;57976;48.174;16.370;2023-07-13T02:16:14;3.80;;;1.20;;
70487;SDS011;57976;48.174;16.370;2023-07-13T02:18:19;4.40;;;1.30;;
70487;SDS011;57976;48.174;16.370;2023-07-13T02:20:23;4.30;;;1.30;;
70487;SDS011;57976;48.174;16.370;2023-07-13T02:22:28;4.10;;;1.30;;
70487;SDS011;57976;48.174;16.370;2023-07-13T02:24:33;4.60;;;1.40;;
70487;SDS011;57976;48.174;16.370;2023-07-13T02:26:38;3.40;;;1.10;;
70487;SDS011;57976;48.174;16.370;2023-07-13T02:28:43;4.30;;;1.50;;
70487;SDS011;57976;48.174;16.370;2023-07-13T02:30:47;5.30;;;1.20;;
70487;SDS011;57976;48.174;16.370;2023-07-13T02:32:53;3.90;;;1.40;;
70487;SDS011;57976;48.174;16.370;2023-07-13T02:34:58;4.40;;;1.40;;
70487;SDS011;57976;48.174;16.370;2023-07-13T02:37:04;5.00;;;1.40;;
70487;SDS011;57976;48.174;16.370;2023-07-13T02:39:09;4.60;;;1.40;;
70487;SDS011;57976;48.174;16.370;2023-07-13T02:41:17;3.70;;;1.40;;
70487;SDS011;57976;48.174;16.370;2023-07-13T02:43:22;4.10;;;1.40;;
70487;SDS011;57976;48.174;16.370;2023-07-13T02:45:27;4.00;;;1.50;;
70487;SDS011;57976;48.174;16.370;2023-07-13T02:47:33;4.40;;;1.40;;
70487;SDS011;57976;48.174;16.370;2023-07-13T02:49:38;4.30;;;1.30;;
70487;SDS011;57976;48.174;16.370;2023-07-13T02:51:43;5.60;;;1.60;;
70487;SDS011;57976;48.174;16.370;2023-07-13T02:53:48;3.80;;;1.40;;
70487;SDS011;57976;48.174;16.370;2023-07-13T02:55:53;5.00;;;1.50;;
70487;SDS011;57976;48.174;16.370;2023-07-13T02:57:57;4.40;;;1.50;;
70487;SDS011;57976;48.174;16.370;2023-07-13T03:00:06;4.60;;;1.40;;
70487;SDS011;57976;48.174;16.370;2023-07-13T03:02:12;5.30;;;1.80;;
70487;SDS011;57976;48.174;16.370;2023-07-13T03:04:17;4.50;;;1.50;;
70487;SDS011;57976;48.174;16.370;2023-07-13T03:06:22;4.70;;;1.50;;
70487;SDS011;57976;48.174;16.370;2023-07-13T03:08:29;4.30;;;1.50;;
70487;SDS011;57976;48.174;16.370;2023-07-13T03:10:34;4.20;;;1.40;;
70487;SDS011;57976;48.174;16.370;2023-07-13T03:12:40;4.30;;;1.50;;
70487;SDS011;57976;48.174;16.370;2023-07-13T03:14:51;4.00;;;1.50;;
70487;SDS011;57976;48.174;16.370;2023-07-13T03:16:56;4.20;;;1.40;;
70487;SDS011;57976;48.174;16.370;2023-07-13T03:19:03;4.20;;;1.60;;
70487;SDS011;57976;48.174;16.370;2023-07-13T03:21:09;5.30;;;1.60;;
70487;SDS011;57976;48.174;16.370;2023-07-13T03:23:14;4.60;;;1.50;;
70487;SDS011;57976;48.174;16.370;2023-07-13T03:25:19;3.80;;;1.40;;
70487;SDS011;57976;48.174;16.370;2023-07-13T03:27:24;4.40;;;1.50;;
70487;SDS011;57976;48.174;16.370;2023-07-13T03:29:30;4.50;;;1.40;;
70487;SDS011;57976;48.174;16.370;2023-07-13T03:31:37;4.00;;;1.40;;
70487;SDS011;57976;48.174;16.370;2023-07-13T03:33:42;4.40;;;1.40;;
70487;SDS011;57976;48.174;16.370;2023-07-13T03:35:48;5.90;;;1.50;;
70487;SDS011;57976;48.174;16.370;2023-07-13T03:37:52;4.50;;;1.50;;
70487;SDS011;57976;48.174;16.370;2023-07-13T03:39:58;4.90;;;1.60;;
70487;SDS011;57976;48.174;16.370;2023-07-13T03:42:05;4.50;;;1.60;;
70487;SDS011;57976;48.174;16.370;2023-07-13T03:44:12;4.50;;;1.50;;
70487;SDS011;57976;48.174;16.370;2023-07-13T03:46:18;4.50;;;1.70;;
70487;SDS011;57976;48.174;16.370;2023-07-13T03:48:23;4.60;;;1.50;;
70487;SDS011;57976;48.174;16.370;2023-07-13T03:50:29;4.40;;;1.50;;
70487;SDS011;57976;48.174;16.370;2023-07-13T03:52:33;4.80;;;1.60;;
70487;SDS011;57976;48.174;16.370;2023-07-13T03:54:40;4.90;;;1.50;;
70487;SDS011;57976;48.174;16.370;2023-07-13T03:56:44;4.10;;;1.50;;
70487;SDS011;57976;48.174;16.370;2023-07-13T03:58:50;4.00;;;1.60;;
70487;SDS011;57976;48.174;16.370;2023-07-13T04:00:56;4.50;;;1.50;;
70487;SDS011;57976;48.174;16.370;2023-07-13T04:03:01;4.50;;;1.40;;
70487;SDS011;57976;48.174;16.370;2023-07-13T04:05:07;5.70;;;1.70;;
70487;SDS011;57976;48.174;16.370;2023-07-13T04:07:12;4.40;;;1.60;;
70487;SDS011;57976;48.174;16.370;2023-07-13T04:09:17;6.00;;;1.80;;
70487;SDS011;57976;48.174;16.370;2023-07-13T04:11:23;4.60;;;1.70;;
70487;SDS011;57976;48.174;16.370;2023-07-13T04:13:29;4.50;;;1.60;;
70487;SDS011;57976;48.174;16.370;2023-07-13T04:15:34;5.60;;;1.90;;
70487;SDS011;57976;48.174;16.370;2023-07-13T04:17:39;6.20;;;1.80;;
70487;SDS011;57976;48.174;16.370;2023-07-13T04:19:44;7.10;;;1.80;;
70487;SDS011;57976;48.174;16.370;2023-07-13T04:21:49;4.80;;;1.90;;
70487;SDS011;57976;48.174;16.370;2023-07-13T04:23:54;4.30;;;1.70;;
70487;SDS011;57976;48.174;16.370;2023-07-13T04:25:59;6.40;;;1.90;;
70487;SDS011;57976;48.174;16.370;2023-07-13T04:28:04;5.90;;;1.70;;
70487;SDS011;57976;48.174;16.370;2023-07-13T04:30:09;6.50;;;1.90;;
70487;SDS011;57976;48.174;16.370;2023-07-13T04:32:14;6.30;;;1.90;;
70487;SDS011;57976;48.174;16.370;2023-07-13T04:34:19;6.70;;;2.20;;
70487;SDS011;57976;48.174;16.370;2023-07-13T04:36:24;5.90;;;2.00;;
70487;SDS011;57976;48.174;16.370;2023-07-13T04:38:30;9.40;;;3.00;;
70487;SDS011;57976;48.174;16.370;2023-07-13T04:40:35;5.40;;;2.10;;
70487;SDS011;57976;48.174;16.370;2023-07-13T04:42:40;5.30;;;1.80;;
70487;SDS011;57976;48.174;16.370;2023-07-13T04:44:48;6.90;;;2.40;;
70487;SDS011;57976;48.174;16.370;2023-07-13T04:46:53;6.60;;;2.40;;
70487;SDS011;57976;48.174;16.370;2023-07-13T04:48:58;5.30;;;1.90;;
70487;SDS011;57976;48.174;16.370;2023-07-13T04:51:02;5.00;;;1.80;;
70487;SDS011;57976;48.174;16.370;2023-07-13T04:53:07;4.80;;;1.60;;
70487;SDS011;57976;48.174;16.370;2023-07-13T04:55:12;5.50;;;1.80;;
70487;SDS011;57976;48.174;16.370;2023-07-13T04:57:17;6.10;;;1.70;;
70487;SDS011;57976;48.174;16.370;2023-07-13T04:59:22;4.60;;;1.80;;
70487;SDS011;57976;48.174;16.370;2023-07-13T05:01:27;6.50;;;2.20;;
70487;SDS011;57976;48.174;16.370;2023-07-13T05:03:32;5.80;;;1.90;;
70487;SDS011;57976;48.174;16.370;2023-07-13T05:05:38;4.90;;;1.90;;
70487;SDS011;57976;48.174;16.370;2023-07-13T05:07:44;5.10;;;1.50;;
70487;SDS011;57976;48.174;16.370;2023-07-13T05:09:51;5.20;;;1.60;;
70487;SDS011;57976;48.174;16.370;2023-07-13T05:11:55;4.90;;;1.60;;
70487;SDS011;57976;48.174;16.370;2023-07-13T05:14:00;4.40;;;1.40;;
70487;SDS011;57976;48.174;16.370;2023-07-13T05:16:05;5.00;;;1.50;;
70487;SDS011;57976;48.174;16.370;2023-07-13T05:18:11;4.60;;;1.40;;
70487;SDS011;57976;48.174;16.370;2023-07-13T05:20:16;3.90;;;1.30;;
70487;SDS011;57976;48.174;16.370;2023-07-13T05:22:21;4.40;;;1.40;;
70487;SDS011;57976;48.174;16.370;2023-07-13T05:24:26;4.90;;;1.50;;
70487;SDS011;57976;48.174;16.370;2023-07-13T05:26:32;5.40;;;1.90;;
70487;SDS011;57976;48.174;16.370;2023-07-13T05:28:37;4.50;;;1.60;;
70487;SDS011;57976;48.174;16.370;2023-07-13T05:30:46;3.90;;;1.50;;
70487;SDS011;57976;48.174;16.370;2023-07-13T05:32:51;4.10;;;1.30;;
70487;SDS011;57976;48.174;16.370;2023-07-13T05:34:57;4.20;;;1.60;;
70487;SDS011;57976;48.174;16.370;2023-07-13T05:37:01;4.60;;;1.40;;
70487;SDS011;57976;48.174;16.370;2023-07-13T05:39:08;5.40;;;1.70;;
70487;SDS011;57976;48.174;16.370;2023-07-13T05:41:13;4.40;;;1.20;;
70487;SDS011;57976;48.174;16.370;2023-07-13T05:43:18;5.30;;;1.60;;
70487;SDS011;57976;48.174;16.370;2023-07-13T05:45:23;5.00;;;1.40;;
70487;SDS011;57976;48.174;16.370;2023-07-13T05:47:27;4.40;;;1.40;;
70487;SDS011;57976;48.174;16.370;2023-07-13T05:49:32;5.90;;;1.40;;
70487;SDS011;57976;48.174;16.370;2023-07-13T05:51:37;4.30;;;1.30;;
70487;SDS011;57976;48.174;16.370;2023-07-13T05:53:52;5.20;;;1.60;;
70487;SDS011;57976;48.174;16.370;2023-07-13T05:55:57;4.60;;;1.40;;
70487;SDS011;57976;48.174;16.370;2023-07-13T05:58:05;3.80;;;1.30;;
70487;SDS011;57976;48.174;16.370;2023-07-13T06:00:10;6.00;;;1.70;;
70487;SDS011;57976;48.174;16.370;2023-07-13T06:02:16;4.50;;;1.60;;
70487;SDS011;57976;48.174;16.370;2023-07-13T06:04:23;4.80;;;1.40;;
70487;SDS011;57976;48.174;16.370;2023-07-13T06:06:27;5.00;;;1.40;;
70487;SDS011;57976;48.174;16.370;2023-07-13T06:08:32;4.50;;;1.50;;
70487;SDS011;57976;48.174;16.370;2023-07-13T06:10:37;5.70;;;1.80;;
70487;SDS011;57976;48.174;16.370;2023-07-13T06:12:42;5.30;;;1.80;;
70487;SDS011;57976;48.174;16.370;2023-07-13T06:14:47;4.80;;;1.40;;
70487;SDS011;57976;48.174;16.370;2023-07-13T06:16:52;5.40;;;1.60;;
70487;SDS011;57976;48.174;16.370;2023-07-13T06:18:57;4.60;;;1.20;;
70487;SDS011;57976;48.174;16.370;2023-07-13T06:21:04;3.70;;;1.40;;
70487;SDS011;57976;48.174;16.370;2023-07-13T06:23:11;3.80;;;1.30;;
70487;SDS011;57976;48.174;16.370;2023-07-13T06:25:15;4.00;;;1.20;;
70487;SDS011;57976;48.174;16.370;2023-07-13T06:27:20;4.10;;;1.30;;
70487;SDS011;57976;48.174;16.370;2023-07-13T06:29:25;4.60;;;1.40;;
70487;SDS011;57976;48.174;16.370;2023-07-13T06:31:33;5.00;;;1.50;;
70487;SDS011;57976;48.174;16.370;2023-07-13T06:33:38;4.50;;;1.80;;
70487;SDS011;57976;48.174;16.370;2023-07-13T06:35:43;4.40;;;1.40;;
70487;SDS011;57976;48.174;16.370;2023-07-13T06:37:48;4.70;;;1.30;;
70487;SDS011;57976;48.174;16.370;2023-07-13T06:39:53;4.30;;;1.40;;
70487;SDS011;57976;48.174;16.370;2023-07-13T06:41:58;5.00;;;1.40;;
70487;SDS011;57976;48.174;16.370;2023-07-13T06:44:02;4.00;;;1.20;;
70487;SDS011;57976;48.174;16.370;2023-07-13T06:46:07;5.10;;;1.30;;
70487;SDS011;57976;48.174;16.370;2023-07-13T06:48:13;4.30;;;1.20;;
70487;SDS011;57976;48.174;16.370;2023-07-13T06:50:18;4.40;;;1.10;;
70487;SDS011;57976;48.174;16.370;2023-07-13T06:52:23;3.10;;;1.00;;
70487;SDS011;57976;48.174;16.370;2023-07-13T06:54:27;3.70;;;1.30;;
70487;SDS011;57976;48.174;16.370;2023-07-13T06:56:32;3.70;;;1.10;;
70487;SDS011;57976;48.174;16.370;2023-07-13T06:58:37;3.70;;;1.20;;
70487;SDS011;57976;48.174;16.370;2023-07-13T07:00:42;3.60;;;1.10;;
70487;SDS011;57976;48.174;16.370;2023-07-13T07:02:48;3.60;;;1.20;;
70487;SDS011;57976;48.174;16.370;2023-07-13T07:04:54;3.60;;;1.10;;
70487;SDS011;57976;48.174;16.370;2023-07-13T07:06:59;3.20;;;0.90;;
70487;SDS011;57976;48.174;16.370;2023-07-13T07:09:05;3.10;;;1.00;;
70487;SDS011;57976;48.174;16.370;2023-07-13T07:11:11;3.90;;;1.00;;
70487;SDS011;57976;48.174;16.370;2023-07-13T07:13:19;3.80;;;1.20;;
70487;SDS011;57976;48.174;16.370;2023-07-13T07:15:24;3.20;;;1.00;;
70487;SDS011;57976;48.174;16.370;2023-07-13T07:17:29;3.40;;;1.00;;
70487;SDS011;57976;48.174;16.370;2023-07-13T07:19:34;4.60;;;1.10;;
70487;SDS011;57976;48.174;16.370;2023-07-13T07:21:39;3.10;;;0.90;;
70487;SDS011;57976;48.174;16.370;2023-07-13T07:23:44;4.00;;;1.10;;
70487;SDS011;57976;48.174;16.370;2023-07-13T07:25:49;3.20;;;1.00;;
70487;SDS011;57976;48.174;16.370;2023-07-13T07:27:54;3.10;;;1.00;;
70487;SDS011;57976;48.174;16.370;2023-07-13T07:30:02;4.50;;;1.30;;
70487;SDS011;57976;48.174;16.370;2023-07-13T07:32:11;4.30;;;1.30;;
70487;SDS011;57976;48.174;16.370;2023-07-13T07:34:36;3.80;;;1.30;;
70487;SDS011;57976;48.174;16.370;2023-07-13T07:36:41;3.30;;;1.20;;
70487;SDS011;57976;48.174;16.370;2023-07-13T07:38:49;3.50;;;1.20;;
70487;SDS011;57976;48.174;16.370;2023-07-13T07:40:53;5.00;;;1.20;;
70487;SDS011;57976;48.174;16.370;2023-07-13T07:43:01;3.00;;;1.20;;
70487;SDS011;57976;48.174;16.370;2023-07-13T07:45:06;3.20;;;1.10;;
70487;SDS011;57976;48.174;16.370;2023-07-13T07:47:12;4.40;;;1.10;;
70487;SDS011;57976;48.174;16.370;2023-07-13T07:49:17;3.50;;;1.00;;
70487;SDS011;57976;48.174;16.370;2023-07-13T07:51:22;2.90;;;1.00;;
70487;SDS011;57976;48.174;16.370;2023-07-13T07:53:27;3.70;;;1.00;;
70487;SDS011;57976;48.174;16.370;2023-07-13T07:55:36;3.20;;;1.10;;
70487;SDS011;57976;48.174;16.370;2023-07-13T07:57:44;2.80;;;1.00;;
70487;SDS011;57976;48.174;16.370;2023-07-13T07:59:52;4.10;;;1.30;;
70487;SDS011;57976;48.174;16.370;2023-07-13T08:02:02;4.50;;;1.10;;
70487;SDS011;57976;48.174;16.370;2023-07-13T08:04:11;3.40;;;1.20;;
70487;SDS011;57976;48.174;16.370;2023-07-13T08:06:36;4.00;;;1.20;;
70487;SDS011;57976;48.174;16.370;2023-07-13T08:08:44;4.00;;;1.10;;
70487;SDS011;57976;48.174;16.370;2023-07-13T08:10:48;3.60;;;1.20;;
70487;SDS011;57976;48.174;16.370;2023-07-13T08:12:57;2.80;;;1.00;;
70487;SDS011;57976;48.174;16.370;2023-07-13T08:15:06;3.20;;;1.00;;
70487;SDS011;57976;48.174;16.370;2023-07-13T08:17:14;3.70;;;1.10;;
70487;SDS011;57976;48.174;16.370;2023-07-13T08:19:19;4.00;;;1.20;;
70487;SDS011;57976;48.174;16.370;2023-07-13T08:21:24;4.20;;;1.00;;
70487;SDS011;57976;48.174;16.370;2023-07-13T08:23:29;3.40;;;1.10;;
70487;SDS011;57976;48.174;16.370;2023-07-13T08:25:36;4.00;;;1.10;;
70487;SDS011;57976;48.174;16.370;2023-07-13T08:27:41;3.70;;;1.30;;
70487;SDS011;57976;48.174;16.370;2023-07-13T08:29:46;4.50;;;1.20;;
70487;SDS011;57976;48.174;16.370;2023-07-13T08:31:52;4.30;;;1.40;;
70487;SDS011;57976;48.174;16.370;2023-07-13T08:33:57;3.30;;;1.30;;
70487;SDS011;57976;48.174;16.370;2023-07-13T08:36:02;4.90;;;1.40;;
70487;SDS011;57976;48.174;16.370;2023-07-13T08:38:07;4.10;;;1.40;;
70487;SDS011;57976;48.174;16.370;2023-07-13T08:40:12;4.00;;;1.50;;
70487;SDS011;57976;48.174;16.370;2023-07-13T08:42:19;4.60;;;1.40;;
70487;SDS011;57976;48.174;16.370;2023-07-13T08:44:35;3.70;;;1.40;;
70487;SDS011;57976;48.174;16.370;2023-07-13T08:46:47;4.80;;;1.60;;
70487;SDS011;57976;48.174;16.370;2023-07-13T08:48:56;4.60;;;1.50;;
70487;SDS011;57976;48.174;16.370;2023-07-13T08:51:10;5.00;;;1.60;;
70487;SDS011;57976;48.174;16.370;2023-07-13T08:53:27;6.20;;;1.50;;
70487;SDS011;57976;48.174;16.370;2023-07-13T08:55:38;4.50;;;1.50;;
70487;SDS011;57976;48.174;16.370;2023-07-13T08:57:43;4.90;;;1.50;;
70487;SDS011;57976;48.174;16.370;2023-07-13T08:59:52;4.30;;;1.60;;
70487;SDS011;57976;48.174;16.370;2023-07-13T09:02:03;5.60;;;1.80;;
70487;SDS011;57976;48.174;16.370;2023-07-13T09:04:20;5.50;;;1.90;;
70487;SDS011;57976;48.174;16.370;2023-07-13T09:06:30;5.30;;;1.70;;
70487;SDS011;57976;48.174;16.370;2023-07-13T09:08:48;4.80;;;1.80;;
70487;SDS011;57976;48.174;16.370;2023-07-13T09:11:02;5.30;;;2.10;;
70487;SDS011;57976;48.174;16.370;2023-07-13T09:13:22;5.80;;;2.30;;
70487;SDS011;57976;48.174;16.370;2023-07-13T09:15:34;5.00;;;2.20;;
70487;SDS011;57976;48.174;16.370;2023-07-13T09:17:45;5.10;;;2.50;;
70487;SDS011;57976;48.174;16.370;2023-07-13T09:19:55;5.80;;;2.60;;
70487;SDS011;57976;48.174;16.370;2023-07-13T09:22:09;6.00;;;2.50;;
70487;SDS011;57976;48.174;16.370;2023-07-13T09:24:26;6.20;;;2.40;;
70487;SDS011;57976;48.174;16.370;2023-07-13T09:26:39;5.80;;;2.70;;
70487;SDS011;57976;48.174;16.370;2023-07-13T09:28:45;6.20;;;2.90;;
70487;SDS011;57976;48.174;16.370;2023-07-13T09:30:54;5.80;;;2.90;;
70487;SDS011;57976;48.174;16.370;2023-07-13T09:33:03;6.20;;;2.80;;
70487;SDS011;57976;48.174;16.370;2023-07-13T09:35:10;6.40;;;2.80;;
70487;SDS011;57976;48.174;16.370;2023-07-13T09:37:15;5.50;;;2.80;;
70487;SDS011;57976;48.174;16.370;2023-07-13T09:39:30;5.80;;;2.80;;
70487;SDS011;57976;48.174;16.370;2023-07-13T09:41:39;5.70;;;2.80;;
70487;SDS011;57976;48.174;16.370;2023-07-13T09:44:06;6.10;;;3.20;;
70487;SDS011;57976;48.174;16.370;2023-07-13T09:46:21;5.40;;;2.80;;
70487;SDS011;57976;48.174;16.370;2023-07-13T09:48:26;6.20;;;3.10;;
70487;SDS011;57976;48.174;16.370;2023-07-13T09:50:38;6.20;;;2.90;;
70487;SDS011;57976;48.174;16.370;2023-07-13T09:52:45;6.10;;;3.20;;
70487;SDS011;57976;48.174;16.370;2023-07-13T09:54:51;5.60;;;2.90;;
70487;SDS011;57976;48.174;16.370;2023-07-13T09:56:58;7.00;;;3.40;;
70487;SDS011;57976;48.174;16.370;2023-07-13T09:59:04;5.90;;;3.20;;
70487;SDS011;57976;48.174;16.370;2023-07-13T10:01:32;6.60;;;3.50;;
70487;SDS011;57976;48.174;16.370;2023-07-13T10:03:38;6.90;;;3.50;;
70487;SDS011;57976;48.174;16.370;2023-07-13T10:05:54;7.00;;;3.80;;
70487;SDS011;57976;48.174;16.370;2023-07-13T10:08:18;6.40;;;3.50;;
70487;SDS011;57976;48.174;16.370;2023-07-13T10:10:26;6.80;;;3.50;;
70487;SDS011;57976;48.174;16.370;2023-07-13T10:12:35;7.20;;;3.20;;
70487;SDS011;57976;48.174;16.370;2023-07-13T10:14:41;6.50;;;2.90;;
70487;SDS011;57976;48.174;16.370;2023-07-13T10:16:46;6.20;;;3.20;;
70487;SDS011;57976;48.174;16.370;2023-07-13T10:18:53;6.40;;;3.10;;
70487;SDS011;57976;48.174;16.370;2023-07-13T10:21:09;5.80;;;3.00;;
70487;SDS011;57976;48.174;16.370;2023-07-13T10:23:21;5.90;;;3.00;;
70487;SDS011;57976;48.174;16.370;2023-07-13T10:25:38;6.20;;;3.20;;
70487;SDS011;57976;48.174;16.370;2023-07-13T10:27:46;6.10;;;3.30;;
70487;SDS011;57976;48.174;16.370;2023-07-13T10:29:53;6.00;;;3.20;;
70487;SDS011;57976;48.174;16.370;2023-07-13T10:32:04;6.90;;;3.40;;
70487;SDS011;57976;48.174;16.370;2023-07-13T10:34:14;5.80;;;3.20;;
70487;SDS011;57976;48.174;16.370;2023-07-13T10:36:23;5.80;;;2.90;;
70487;SDS011;57976;48.174;16.370;2023-07-13T10:38:34;6.60;;;3.20;;
70487;SDS011;57976;48.174;16.370;2023-07-13T10:40:39;6.30;;;3.00;;
70487;SDS011;57976;48.174;16.370;2023-07-13T10:42:48;7.90;;;3.20;;
70487;SDS011;57976;48.174;16.370;2023-07-13T10:44:57;6.60;;;3.10;;
70487;SDS011;57976;48.174;16.370;2023-07-13T10:47:03;8.00;;;3.10;;
70487;SDS011;57976;48.174;16.370;2023-07-13T10:49:11;5.80;;;3.40;;
70487;SDS011;57976;48.174;16.370;2023-07-13T10:51:17;5.90;;;3.20;;
70487;SDS011;57976;48.174;16.370;2023-07-13T10:53:27;6.80;;;3.10;;
70487;SDS011;57976;48.174;16.370;2023-07-13T10:55:37;6.20;;;2.90;;
70487;SDS011;57976;48.174;16.370;2023-07-13T10:57:44;8.10;;;3.30;;
70487;SDS011;57976;48.174;16.370;2023-07-13T11:00:10;6.50;;;3.50;;
70487;SDS011;57976;48.174;16.370;2023-07-13T11:02:24;6.00;;;3.40;;
70487;SDS011;57976;48.174;16.370;2023-07-13T11:04:40;5.90;;;3.20;;
70487;SDS011;57976;48.174;16.370;2023-07-13T11:06:48;7.30;;;3.70;;
70487;SDS011;57976;48.174;16.370;2023-07-13T11:08:56;6.60;;;3.90;;
70487;SDS011;57976;48.174;16.370;2023-07-13T11:11:35;5.90;;;3.50;;
70487;SDS011;57976;48.174;16.370;2023-07-13T11:13:57;6.40;;;3.80;;
70487;SDS011;57976;48.174;16.370;2023-07-13T11:16:03;6.70;;;3.70;;
70487;SDS011;57976;48.174;16.370;2023-07-13T11:18:36;6.30;;;3.70;;
70487;SDS011;57976;48.174;16.370;2023-07-13T11:20:41;6.30;;;3.50;;
70487;SDS011;57976;48.174;16.370;2023-07-13T11:22:49;6.70;;;3.70;;
70487;SDS011;57976;48.174;16.370;2023-07-13T11:24:59;6.70;;;3.50;;
70487;SDS011;57976;48.174;16.370;2023-07-13T11:27:24;5.90;;;3.00;;
70487;SDS011;57976;48.174;16.370;2023-07-13T11:29:46;6.60;;;3.20;;
70487;SDS011;57976;48.174;16.370;2023-07-13T11:31:53;7.70;;;3.60;;
70487;SDS011;57976;48.174;16.370;2023-07-13T11:34:00;5.60;;;3.30;;
70487;SDS011;57976;48.174;16.370;2023-07-13T11:36:06;6.10;;;3.10;;
70487;SDS011;57976;48.174;16.370;2023-07-13T11:38:17;6.80;;;3.00;;
70487;SDS011;57976;48.174;16.370;2023-07-13T11:40:24;5.80;;;2.90;;
70487;SDS011;57976;48.174;16.370;2023-07-13T11:42:32;5.60;;;2.90;;
70487;SDS011;57976;48.174;16.370;2023-07-13T11:44:41;6.60;;;3.20;;
70487;SDS011;57976;48.174;16.370;2023-07-13T11:47:10;6.30;;;3.00;;
70487;SDS011;57976;48.174;16.370;2023-07-13T11:49:20;5.40;;;2.80;;
70487;SDS011;57976;48.174;16.370;2023-07-13T11:51:27;5.90;;;2.90;;
70487;SDS011;57976;48.174;16.370;2023-07-13T11:53:36;6.70;;;2.70;;
70487;SDS011;57976;48.174;16.370;2023-07-13T11:55:44;6.70;;;3.00;;
70487;SDS011;57976;48.174;16.370;2023-07-13T11:57:50;6.00;;;3.10;;
70487;SDS011;57976;48.174;16.370;2023-07-13T12:00:00;6.80;;;2.70;;
70487;SDS011;57976;48.174;16.370;2023-07-13T12:02:13;6.50;;;3.00;;
70487;SDS011;57976;48.174;16.370;2023-07-13T12:04:27;6.10;;;2.80;;
70487;SDS011;57976;48.174;16.370;2023-07-13T12:06:35;5.80;;;2.90;;
70487;SDS011;57976;48.174;16.370;2023-07-13T12:08:40;5.80;;;3.00;;
70487;SDS011;57976;48.174;16.370;2023-07-13T12:10:45;6.00;;;3.10;;
70487;SDS011;57976;48.174;16.370;2023-07-13T12:12:50;6.80;;;3.00;;
70487;SDS011;57976;48.174;16.370;2023-07-13T12:14:58;5.40;;;2.50;;
70487;SDS011;57976;48.174;16.370;2023-07-13T12:17:04;5.40;;;3.00;;
70487;SDS011;57976;48.174;16.370;2023-07-13T12:19:17;5.80;;;2.70;;
70487;SDS011;57976;48.174;16.370;2023-07-13T12:21:26;6.20;;;3.00;;
70487;SDS011;57976;48.174;16.370;2023-07-13T12:23:34;5.90;;;2.60;;
70487;SDS011;57976;48.174;16.370;2023-07-13T12:25:40;6.00;;;3.00;;
70487;SDS011;57976;48.174;16.370;2023-07-13T12:27:48;6.50;;;2.90;;
70487;SDS011;57976;48.174;16.370;2023-07-13T12:30:00;6.10;;;2.70;;
70487;SDS011;57976;48.174;16.370;2023-07-13T12:32:09;6.40;;;2.80;;
70487;SDS011;57976;48.174;16.370;2023-07-13T12:34:20;6.10;;;2.90;;
70487;SDS011;57976;48.174;16.370;2023-07-13T12:36:27;5.30;;;2.80;;
70487;SDS011;57976;48.174;16.370;2023-07-13T12:38:35;6.20;;;2.90;;
70487;SDS011;57976;48.174;16.370;2023-07-13T12:40:39;6.10;;;2.70;;